Time,TemperatureF,DewpointF,PressureIn,WindDirection,WindDirectionDegrees,WindSpeedMPH,WindSpeedGustMPH,Humidity,HourlyPrecipIn,Conditions,Clouds,dailyrainin,SoftwareType,DateUTC
2013-03-08 00:00:00,57.6,53.8,30.19,NNE,27,0.0,0.0,87,0.00,,,0.00,Wunderground v.1.15,2013-03-08 05:00:00,
2013-03-08 00:01:00,57.5,53.7,30.19,NNE,27,0.0,0.0,87,0.00,,,0.00,Wunderground v.1.15,2013-03-08 05:01:00,
2013-03-08 00:05:00,57.4,53.9,30.19,NNE,22,0.0,0.0,88,0.00,,,0.00,Wunderground v.1.15,2013-03-08 05:05:00,
2013-03-08 00:06:00,57.4,53.9,30.19,NNE,22,0.0,0.0,88,0.00,,,0.00,Wunderground v.1.15,2013-03-08 05:06:00,
2013-03-08 00:12:00,57.2,53.7,30.18,NNE,22,0.0,0.0,88,0.00,,,0.00,Wunderground v.1.15,2013-03-08 05:12:00,
2013-03-08 00:18:00,57.1,53.6,30.18,NNE,22,0.0,0.0,88,0.00,,,0.00,Wunderground v.1.15,2013-03-08 05:18:00,
2013-03-08 00:24:00,56.9,53.7,30.17,NNE,22,0.0,0.0,89,0.00,,,0.00,Wunderground v.1.15,2013-03-08 05:24:00,
2013-03-08 00:29:00,56.8,53.6,30.18,NNE,22,0.0,0.0,89,0.00,,,0.00,Wunderground v.1.15,2013-03-08 05:29:00,
2013-03-08 00:35:00,56.5,53.6,30.17,NNE,22,0.0,0.0,90,0.00,,,0.00,Wunderground v.1.15,2013-03-08 05:35:00,
2013-03-08 00:41:00,56.5,53.9,30.18,NNE,22,0.0,0.0,91,0.00,,,0.00,Wunderground v.1.15,2013-03-08 05:41:00,
2013-03-08 00:47:00,56.3,53.4,30.18,NNE,22,0.0,0.0,90,0.00,,,0.00,Wunderground v.1.15,2013-03-08 05:47:00,
2013-03-08 00:53:00,56.0,53.1,30.18,NNE,22,0.0,0.0,90,0.00,,,0.00,Wunderground v.1.15,2013-03-08 05:53:00,
2013-03-08 00:59:00,55.8,53.2,30.17,NNE,22,0.0,0.0,91,0.00,,,0.00,Wunderground v.1.15,2013-03-08 05:59:00,
2013-03-08 01:04:00,55.7,53.1,30.17,NNE,22,0.0,0.0,91,0.00,,,0.00,Wunderground v.1.15,2013-03-08 06:04:00,
2013-03-08 01:10:00,55.7,53.4,30.18,WNW,283,0.0,0.0,92,0.00,,,0.00,Wunderground v.1.15,2013-03-08 06:10:00,
2013-03-08 01:16:00,56.1,54.1,30.17,WNW,297,0.0,0.0,93,0.00,,,0.00,Wunderground v.1.15,2013-03-08 06:16:00,
2013-03-08 01:21:00,56.2,53.9,30.17,NW,305,2.0,2.0,92,0.00,,,0.00,Wunderground v.1.15,2013-03-08 06:21:00,
2013-03-08 01:26:00,56.3,54.0,30.17,NNW,341,0.0,2.0,92,0.00,,,0.00,Wunderground v.1.15,2013-03-08 06:26:00,
2013-03-08 01:31:00,56.4,54.4,30.17,WNW,298,0.0,0.0,93,0.00,,,0.00,Wunderground v.1.15,2013-03-08 06:31:00,
2013-03-08 01:37:00,56.6,54.6,30.17,NW,316,0.0,0.0,93,0.00,,,0.00,Wunderground v.1.15,2013-03-08 06:37:00,
2013-03-08 01:43:00,56.6,54.3,30.17,NW,307,0.0,0.0,92,0.00,,,0.00,Wunderground v.1.15,2013-03-08 06:43:00,
2013-03-08 01:49:00,56.4,54.1,30.17,NW,308,0.0,0.0,92,0.00,,,0.00,Wunderground v.1.15,2013-03-08 06:49:00,
2013-03-08 01:54:00,56.2,53.9,30.17,WNW,303,0.0,0.0,92,0.00,,,0.00,Wunderground v.1.15,2013-03-08 06:54:00,
2013-03-08 02:00:00,56.0,53.7,30.17,NW,304,0.0,0.0,92,0.00,,,0.00,Wunderground v.1.15,2013-03-08 07:00:00,
2013-03-08 02:05:00,55.9,53.6,30.17,NNW,335,0.0,0.0,92,0.00,,,0.00,Wunderground v.1.15,2013-03-08 07:05:00,
2013-03-08 02:10:00,55.7,53.4,30.17,NNE,18,0.0,0.0,92,0.00,,,0.00,Wunderground v.1.15,2013-03-08 07:10:00,
2013-03-08 02:15:00,55.7,53.4,30.17,NNE,16,0.0,3.0,92,0.00,,,0.00,Wunderground v.1.15,2013-03-08 07:15:00,
2013-03-08 02:20:00,55.8,53.5,30.16,NW,313,1.0,2.0,92,0.00,,,0.00,Wunderground v.1.15,2013-03-08 07:20:00,
2013-03-08 02:25:00,55.7,53.1,30.16,NNW,336,0.0,2.0,91,0.00,,,0.00,Wunderground v.1.15,2013-03-08 07:25:00,
2013-03-08 02:30:00,55.7,53.1,30.16,WNW,298,0.0,0.0,91,0.00,,,0.00,Wunderground v.1.15,2013-03-08 07:30:00,
2013-03-08 02:35:00,55.6,53.0,30.16,NNE,33,3.0,3.0,91,0.00,,,0.00,Wunderground v.1.15,2013-03-08 07:35:00,
2013-03-08 02:40:00,55.4,52.8,30.16,NW,311,0.0,0.0,91,0.00,,,0.00,Wunderground v.1.15,2013-03-08 07:40:00,
2013-03-08 02:45:00,55.3,52.7,30.16,NNW,341,1.0,2.0,91,0.00,,,0.00,Wunderground v.1.15,2013-03-08 07:45:00,
2013-03-08 02:50:00,55.2,52.6,30.16,WNW,289,0.0,0.0,91,0.00,,,0.00,Wunderground v.1.15,2013-03-08 07:50:00,
2013-03-08 02:55:00,55.0,52.4,30.16,NNE,25,0.0,3.0,91,0.00,,,0.00,Wunderground v.1.15,2013-03-08 07:55:00,
2013-03-08 03:00:00,54.9,52.3,30.16,WNW,292,0.0,0.0,91,0.00,,,0.00,Wunderground v.1.15,2013-03-08 08:00:00,
2013-03-08 03:05:00,54.7,52.1,30.16,North,359,1.0,2.0,91,0.00,,,0.00,Wunderground v.1.15,2013-03-08 08:05:00,
2013-03-08 03:10:00,54.6,52.0,30.16,WNW,289,1.0,1.0,91,0.00,,,0.00,Wunderground v.1.15,2013-03-08 08:10:00,
2013-03-08 03:15:00,54.6,52.3,30.16,NW,308,0.0,2.0,92,0.00,,,0.00,Wunderground v.1.15,2013-03-08 08:15:00,
2013-03-08 03:20:00,54.4,51.8,30.15,North,359,0.0,1.0,91,0.00,,,0.00,Wunderground v.1.15,2013-03-08 08:20:00,
2013-03-08 03:25:00,54.3,52.0,30.16,NNW,342,0.0,1.0,92,0.00,,,0.00,Wunderground v.1.15,2013-03-08 08:25:00,
2013-03-08 03:30:00,54.2,51.9,30.16,NE,53,0.0,0.0,92,0.00,,,0.00,Wunderground v.1.15,2013-03-08 08:30:00,
2013-03-08 03:35:00,54.1,51.8,30.16,NE,53,0.0,0.0,92,0.00,,,0.00,Wunderground v.1.15,2013-03-08 08:35:00,
2013-03-08 03:40:00,54.0,51.7,30.15,North,356,0.0,0.0,92,0.00,,,0.00,Wunderground v.1.15,2013-03-08 08:40:00,
2013-03-08 03:45:00,53.9,51.6,30.16,North,11,0.0,1.0,92,0.00,,,0.00,Wunderground v.1.15,2013-03-08 08:45:00,
2013-03-08 03:51:00,53.8,51.5,30.16,North,11,0.0,0.0,92,0.00,,,0.00,Wunderground v.1.15,2013-03-08 08:51:00,
2013-03-08 03:56:00,53.8,51.8,30.16,NW,322,0.0,1.0,93,0.00,,,0.00,Wunderground v.1.15,2013-03-08 08:56:00,
2013-03-08 04:01:00,53.9,51.9,30.16,NNW,341,0.0,0.0,93,0.00,,,0.00,Wunderground v.1.15,2013-03-08 09:01:00,
2013-03-08 04:05:00,53.9,51.9,30.16,NNW,345,0.0,1.0,93,0.00,,,0.00,Wunderground v.1.15,2013-03-08 09:05:00,
2013-03-08 04:10:00,53.9,51.9,30.16,NNE,23,0.0,0.0,93,0.00,,,0.00,Wunderground v.1.15,2013-03-08 09:10:00,
2013-03-08 04:15:00,53.8,51.8,30.15,North,354,0.0,1.0,93,0.00,,,0.00,Wunderground v.1.15,2013-03-08 09:15:00,
2013-03-08 04:21:00,53.7,51.7,30.15,North,353,0.0,0.0,93,0.00,,,0.00,Wunderground v.1.15,2013-03-08 09:21:00,
2013-03-08 04:26:00,53.6,51.6,30.15,NNE,16,0.0,0.0,93,0.00,,,0.00,Wunderground v.1.15,2013-03-08 09:26:00,
2013-03-08 04:30:00,53.5,51.5,30.15,NNW,334,0.0,0.0,93,0.00,,,0.00,Wunderground v.1.15,2013-03-08 09:30:00,
2013-03-08 04:35:00,53.4,51.4,30.15,North,353,0.0,1.0,93,0.00,,,0.00,Wunderground v.1.15,2013-03-08 09:35:00,
2013-03-08 04:40:00,53.4,51.4,30.15,NNE,21,0.0,0.0,93,0.00,,,0.00,Wunderground v.1.15,2013-03-08 09:40:00,
2013-03-08 04:45:00,53.4,51.4,30.15,NNE,25,0.0,1.0,93,0.00,,,0.00,Wunderground v.1.15,2013-03-08 09:45:00,
2013-03-08 04:51:00,53.4,51.4,30.15,NNE,18,0.0,1.0,93,0.00,,,0.00,Wunderground v.1.15,2013-03-08 09:51:00,
2013-03-08 04:56:00,53.4,51.4,30.16,North,6,0.0,1.0,93,0.00,,,0.00,Wunderground v.1.15,2013-03-08 09:56:00,
2013-03-08 05:01:00,53.4,51.4,30.16,NE,44,0.0,1.0,93,0.00,,,0.00,Wunderground v.1.15,2013-03-08 10:01:00,
2013-03-08 05:06:00,53.4,51.4,30.16,NNE,28,0.0,1.0,93,0.00,,,0.00,Wunderground v.1.15,2013-03-08 10:06:00,
2013-03-08 05:11:00,53.4,51.4,30.16,North,6,0.0,1.0,93,0.00,,,0.00,Wunderground v.1.15,2013-03-08 10:11:00,
2013-03-08 05:16:00,53.4,51.4,30.16,NNW,345,0.0,1.0,93,0.00,,,0.00,Wunderground v.1.15,2013-03-08 10:16:00,
2013-03-08 05:21:00,53.3,51.3,30.16,NNE,13,0.0,0.0,93,0.00,,,0.00,Wunderground v.1.15,2013-03-08 10:21:00,
2013-03-08 05:26:00,53.2,51.2,30.16,North,359,0.0,1.0,93,0.00,,,0.00,Wunderground v.1.15,2013-03-08 10:26:00,
2013-03-08 05:31:00,53.2,51.2,30.16,North,11,0.0,0.0,93,0.00,,,0.00,Wunderground v.1.15,2013-03-08 10:31:00,
2013-03-08 05:36:00,53.2,51.2,30.16,NNE,30,0.0,1.0,93,0.00,,,0.00,Wunderground v.1.15,2013-03-08 10:36:00,
2013-03-08 05:41:00,53.1,51.1,30.16,NNE,26,0.0,0.0,93,0.00,,,0.00,Wunderground v.1.15,2013-03-08 10:41:00,
2013-03-08 05:46:00,53.0,50.7,30.17,NNE,18,0.0,1.0,92,0.00,,,0.00,Wunderground v.1.15,2013-03-08 10:46:00,
2013-03-08 05:51:00,53.0,50.7,30.17,NNE,25,0.0,1.0,92,0.00,,,0.00,Wunderground v.1.15,2013-03-08 10:51:00,
2013-03-08 05:56:00,53.0,50.7,30.17,NE,34,0.0,1.0,92,0.00,,,0.00,Wunderground v.1.15,2013-03-08 10:56:00,
2013-03-08 06:01:00,53.0,50.7,30.17,WNW,302,0.0,0.0,92,0.00,,,0.00,Wunderground v.1.15,2013-03-08 11:01:00,
2013-03-08 06:06:00,53.1,50.8,30.17,NNE,22,0.0,1.0,92,0.00,,,0.00,Wunderground v.1.15,2013-03-08 11:06:00,
2013-03-08 06:11:00,53.1,50.5,30.17,NNE,19,0.0,0.0,91,0.00,,,0.00,Wunderground v.1.15,2013-03-08 11:11:00,
2013-03-08 06:16:00,53.0,50.4,30.17,NNW,347,0.0,0.0,91,0.00,,,0.00,Wunderground v.1.15,2013-03-08 11:16:00,
2013-03-08 06:21:00,52.9,50.3,30.17,NNW,338,0.0,0.0,91,0.00,,,0.00,Wunderground v.1.15,2013-03-08 11:21:00,
2013-03-08 06:26:00,52.9,50.3,30.17,NNE,25,0.0,0.0,91,0.00,,,0.00,Wunderground v.1.15,2013-03-08 11:26:00,
2013-03-08 06:31:00,52.8,50.2,30.17,NNE,25,0.0,0.0,91,0.00,,,0.00,Wunderground v.1.15,2013-03-08 11:31:00,
2013-03-08 06:36:00,52.8,50.2,30.17,NNE,22,0.0,0.0,91,0.00,,,0.00,Wunderground v.1.15,2013-03-08 11:36:00,
2013-03-08 06:41:00,52.8,49.9,30.18,North,4,0.0,1.0,90,0.00,,,0.00,Wunderground v.1.15,2013-03-08 11:41:00,
2013-03-08 06:46:00,52.8,49.9,30.18,North,360,0.0,1.0,90,0.00,,,0.00,Wunderground v.1.15,2013-03-08 11:46:00,
2013-03-08 06:51:00,53.0,50.1,30.18,NNW,345,0.0,0.0,90,0.00,,,0.00,Wunderground v.1.15,2013-03-08 11:51:00,
2013-03-08 06:56:00,53.1,49.9,30.18,North,360,0.0,1.0,89,0.00,,,0.00,Wunderground v.1.15,2013-03-08 11:56:00,
2013-03-08 07:01:00,53.4,50.2,30.18,North,10,0.0,0.0,89,0.00,,,0.00,Wunderground v.1.15,2013-03-08 12:01:00,
2013-03-08 07:06:00,53.7,50.2,30.18,North,11,0.0,1.0,88,0.00,,,0.00,Wunderground v.1.15,2013-03-08 12:06:00,
2013-03-08 07:11:00,54.2,50.7,30.18,NW,308,0.0,1.0,88,0.00,,,0.00,Wunderground v.1.15,2013-03-08 12:11:00,
2013-03-08 07:16:00,54.7,50.9,30.19,NNE,17,0.0,1.0,87,0.00,,,0.00,Wunderground v.1.15,2013-03-08 12:16:00,
2013-03-08 07:21:00,55.3,51.2,30.19,NNE,33,0.0,1.0,86,0.00,,,0.00,Wunderground v.1.15,2013-03-08 12:21:00,
2013-03-08 07:27:00,55.8,51.4,30.19,NNE,27,0.0,1.0,85,0.00,,,0.00,Wunderground v.1.15,2013-03-08 12:27:00,
2013-03-08 07:31:00,56.4,51.3,30.19,NE,35,0.0,1.0,83,0.00,,,0.00,Wunderground v.1.15,2013-03-08 12:31:00,
2013-03-08 07:37:00,56.7,51.3,30.19,NNE,18,0.0,3.0,82,0.00,,,0.00,Wunderground v.1.15,2013-03-08 12:37:00,
2013-03-08 07:42:00,57.2,51.4,30.19,ENE,60,0.0,1.0,81,0.00,,,0.00,Wunderground v.1.15,2013-03-08 12:42:00,
2013-03-08 07:46:00,57.7,51.9,30.19,NE,37,0.0,2.0,81,0.00,,,0.00,Wunderground v.1.15,2013-03-08 12:46:00,
2013-03-08 07:52:00,58.2,52.1,30.20,NNW,336,0.0,1.0,80,0.00,,,0.00,Wunderground v.1.15,2013-03-08 12:52:00,
2013-03-08 07:57:00,58.6,52.1,30.20,NNE,15,0.0,3.0,79,0.00,,,0.00,Wunderground v.1.15,2013-03-08 12:57:00,
2013-03-08 08:02:00,59.1,51.9,30.20,NNE,30,0.0,0.0,77,0.00,,,0.00,Wunderground v.1.15,2013-03-08 13:02:00,
2013-03-08 08:07:00,59.7,52.5,30.20,North,4,2.0,3.0,77,0.00,,,0.00,Wunderground v.1.15,2013-03-08 13:07:00,
2013-03-08 08:12:00,60.2,52.6,30.20,NNE,32,0.0,2.0,76,0.00,,,0.00,Wunderground v.1.15,2013-03-08 13:12:00,
2013-03-08 08:17:00,60.7,52.7,30.20,North,1,0.0,3.0,75,0.00,,,0.00,Wunderground v.1.15,2013-03-08 13:17:00,
2013-03-08 08:22:00,61.0,52.7,30.20,NW,321,0.0,4.0,74,0.00,,,0.00,Wunderground v.1.15,2013-03-08 13:22:00,
2013-03-08 08:27:00,61.4,52.7,30.20,NNE,15,1.0,7.0,73,0.00,,,0.00,Wunderground v.1.15,2013-03-08 13:27:00,
2013-03-08 08:32:00,61.8,52.7,30.21,NNE,21,2.0,4.0,72,0.00,,,0.00,Wunderground v.1.15,2013-03-08 13:32:00,
2013-03-08 08:37:00,62.4,53.3,30.21,NNW,335,2.0,4.0,72,0.00,,,0.00,Wunderground v.1.15,2013-03-08 13:37:00,
2013-03-08 08:42:00,62.8,53.3,30.21,ENE,58,0.0,1.0,71,0.00,,,0.00,Wunderground v.1.15,2013-03-08 13:42:00,
2013-03-08 08:47:00,63.3,53.3,30.21,North,6,1.0,5.0,70,0.00,,,0.00,Wunderground v.1.15,2013-03-08 13:47:00,
2013-03-08 08:52:00,63.5,53.1,30.20,NW,312,0.0,5.0,69,0.00,,,0.00,Wunderground v.1.15,2013-03-08 13:52:00,
2013-03-08 08:57:00,63.9,53.5,30.21,NE,39,0.0,5.0,69,0.00,,,0.00,Wunderground v.1.15,2013-03-08 13:57:00,
2013-03-08 09:02:00,64.5,53.3,30.21,NE,53,1.0,3.0,67,0.00,,,0.00,Wunderground v.1.15,2013-03-08 14:02:00,
2013-03-08 09:07:00,64.7,52.2,30.21,NE,41,0.0,6.0,64,0.00,,,0.00,Wunderground v.1.15,2013-03-08 14:07:00,
2013-03-08 09:12:00,64.9,52.4,30.21,NE,36,0.0,5.0,64,0.00,,,0.00,Wunderground v.1.15,2013-03-08 14:12:00,
2013-03-08 09:17:00,65.5,52.6,30.21,NE,44,0.0,5.0,63,0.00,,,0.00,Wunderground v.1.15,2013-03-08 14:17:00,
2013-03-08 09:22:00,65.9,52.1,30.21,NNE,29,4.0,6.0,61,0.00,,,0.00,Wunderground v.1.15,2013-03-08 14:22:00,
2013-03-08 09:27:00,66.2,51.9,30.21,North,11,1.0,7.0,60,0.00,,,0.00,Wunderground v.1.15,2013-03-08 14:27:00,
2013-03-08 09:32:00,66.4,51.2,30.21,NE,44,1.0,7.0,58,0.00,,,0.00,Wunderground v.1.15,2013-03-08 14:32:00,
2013-03-08 09:37:00,66.9,51.6,30.21,NE,50,3.0,7.0,58,0.00,,,0.00,Wunderground v.1.15,2013-03-08 14:37:00,
2013-03-08 09:42:00,67.2,51.9,30.22,NNE,16,0.0,5.0,58,0.00,,,0.00,Wunderground v.1.15,2013-03-08 14:42:00,
2013-03-08 09:47:00,67.4,51.2,30.22,NNE,20,0.0,6.0,56,0.00,,,0.00,Wunderground v.1.15,2013-03-08 14:47:00,
2013-03-08 09:52:00,67.6,51.3,30.22,NE,56,4.0,4.0,56,0.00,,,0.00,Wunderground v.1.15,2013-03-08 14:52:00,
2013-03-08 09:57:00,68.1,51.3,30.22,ENE,62,2.0,6.0,55,0.00,,,0.00,Wunderground v.1.15,2013-03-08 14:57:00,
2013-03-08 10:02:00,68.3,50.0,30.21,NNE,22,0.0,5.0,52,0.00,,,0.00,Wunderground v.1.15,2013-03-08 15:02:00,
2013-03-08 10:07:00,68.7,50.9,30.21,North,6,2.0,5.0,53,0.00,,,0.00,Wunderground v.1.15,2013-03-08 15:07:00,
2013-03-08 10:12:00,68.9,50.5,30.21,NE,48,1.0,1.0,52,0.00,,,0.00,Wunderground v.1.15,2013-03-08 15:12:00,
2013-03-08 10:17:00,69.5,49.5,30.21,NE,56,0.0,5.0,49,0.00,,,0.00,Wunderground v.1.15,2013-03-08 15:17:00,
2013-03-08 10:22:00,69.6,50.1,30.22,NE,42,0.0,4.0,50,0.00,,,0.00,Wunderground v.1.15,2013-03-08 15:22:00,
2013-03-08 10:27:00,70.1,50.0,30.22,WNW,283,3.0,5.0,49,0.00,,,0.00,Wunderground v.1.15,2013-03-08 15:27:00,
2013-03-08 10:32:00,70.1,50.6,30.22,WNW,283,0.0,4.0,50,0.00,,,0.00,Wunderground v.1.15,2013-03-08 15:32:00,
2013-03-08 10:37:00,70.4,50.3,30.22,NNW,338,0.0,4.0,49,0.00,,,0.00,Wunderground v.1.15,2013-03-08 15:37:00,
2013-03-08 10:42:00,70.6,50.0,30.22,NNW,347,0.0,4.0,48,0.00,,,0.00,Wunderground v.1.15,2013-03-08 15:42:00,
2013-03-08 10:47:00,70.9,50.8,30.22,ENE,77,0.0,4.0,49,0.00,,,0.00,Wunderground v.1.15,2013-03-08 15:47:00,
2013-03-08 10:52:00,70.9,50.8,30.22,NNE,16,0.0,3.0,49,0.00,,,0.00,Wunderground v.1.15,2013-03-08 15:52:00,
2013-03-08 10:57:00,71.0,51.4,30.22,NE,46,0.0,5.0,50,0.00,,,0.00,Wunderground v.1.15,2013-03-08 15:57:00,
2013-03-08 11:02:00,71.3,51.1,30.21,NE,55,0.0,4.0,49,0.00,,,0.00,Wunderground v.1.15,2013-03-08 16:02:00,
2013-03-08 11:07:00,71.8,51.0,30.21,NNE,30,2.0,4.0,48,0.00,,,0.00,Wunderground v.1.15,2013-03-08 16:07:00,
2013-03-08 11:12:00,71.7,51.0,30.21,NW,323,3.0,4.0,48,0.00,,,0.00,Wunderground v.1.15,2013-03-08 16:12:00,
2013-03-08 11:17:00,71.8,51.0,30.21,ENE,57,0.0,6.0,48,0.00,,,0.00,Wunderground v.1.15,2013-03-08 16:17:00,
2013-03-08 11:22:00,72.2,51.4,30.20,NE,53,1.0,3.0,48,0.00,,,0.00,Wunderground v.1.15,2013-03-08 16:22:00,
2013-03-08 11:27:00,72.3,51.5,30.20,East,96,0.0,5.0,48,0.00,,,0.00,Wunderground v.1.15,2013-03-08 16:27:00,
2013-03-08 11:32:00,72.1,50.8,30.19,NNE,32,0.0,3.0,47,0.00,,,0.00,Wunderground v.1.15,2013-03-08 16:32:00,
2013-03-08 11:37:00,72.3,50.9,30.20,NE,56,0.0,4.0,47,0.00,,,0.00,Wunderground v.1.15,2013-03-08 16:37:00,
2013-03-08 11:42:00,72.7,52.4,30.19,ENE,73,0.0,2.0,49,0.00,,,0.00,Wunderground v.1.15,2013-03-08 16:42:00,
2013-03-08 11:47:00,73.0,52.1,30.19,NNW,342,0.0,4.0,48,0.00,,,0.00,Wunderground v.1.15,2013-03-08 16:47:00,
2013-03-08 11:52:00,73.1,51.1,30.19,ESE,114,2.0,3.0,46,0.00,,,0.00,Wunderground v.1.15,2013-03-08 16:52:00,
2013-03-08 11:57:00,73.4,51.9,30.19,West,271,4.0,5.0,47,0.00,,,0.00,Wunderground v.1.15,2013-03-08 16:57:00,
2013-03-08 12:02:00,72.7,50.7,30.19,East,82,4.0,5.0,46,0.00,,,0.00,Wunderground v.1.15,2013-03-08 17:02:00,
2013-03-08 12:07:00,73.2,51.2,30.19,NNW,342,2.0,5.0,46,0.00,,,0.00,Wunderground v.1.15,2013-03-08 17:07:00,
2013-03-08 12:12:00,73.6,52.1,30.18,ENE,58,0.0,1.0,47,0.00,,,0.00,Wunderground v.1.15,2013-03-08 17:12:00,
2013-03-08 12:17:00,73.9,50.6,30.18,ENE,77,1.0,4.0,44,0.00,,,0.00,Wunderground v.1.15,2013-03-08 17:17:00,
2013-03-08 12:22:00,73.9,51.8,30.18,North,9,0.0,3.0,46,0.00,,,0.00,Wunderground v.1.15,2013-03-08 17:22:00,
2013-03-08 12:27:00,73.6,52.7,30.18,WSW,252,1.0,4.0,48,0.00,,,0.00,Wunderground v.1.15,2013-03-08 17:27:00,
2013-03-08 12:32:00,73.1,51.1,30.18,NW,319,0.0,8.0,46,0.00,,,0.00,Wunderground v.1.15,2013-03-08 17:32:00,
2013-03-08 12:37:00,73.6,50.9,30.18,NNE,18,1.0,8.0,45,0.00,,,0.00,Wunderground v.1.15,2013-03-08 17:37:00,
2013-03-08 12:42:00,74.1,50.8,30.18,NNE,27,0.0,4.0,44,0.00,,,0.00,Wunderground v.1.15,2013-03-08 17:42:00,
2013-03-08 12:47:00,74.5,51.2,30.17,NNE,13,0.0,4.0,44,0.00,,,0.00,Wunderground v.1.15,2013-03-08 17:47:00,
2013-03-08 12:52:00,75.0,51.0,30.17,NW,307,0.0,3.0,43,0.00,,,0.00,Wunderground v.1.15,2013-03-08 17:52:00,
2013-03-08 12:57:00,74.9,50.3,30.17,North,355,1.0,5.0,42,0.00,,,0.00,Wunderground v.1.15,2013-03-08 17:57:00,
2013-03-08 13:02:00,75.1,49.8,30.16,ENE,78,3.0,8.0,41,0.00,,,0.00,Wunderground v.1.15,2013-03-08 18:02:00,
2013-03-08 13:07:00,74.9,50.9,30.16,WNW,295,1.0,8.0,43,0.00,,,0.00,Wunderground v.1.15,2013-03-08 18:07:00,
2013-03-08 13:12:00,75.1,51.1,30.16,East,93,0.0,3.0,43,0.00,,,0.00,Wunderground v.1.15,2013-03-08 18:12:00,
2013-03-08 13:17:00,75.2,49.9,30.16,NW,319,0.0,4.0,41,0.00,,,0.00,Wunderground v.1.15,2013-03-08 18:17:00,
2013-03-08 13:22:00,75.3,50.6,30.15,NW,319,2.0,3.0,42,0.00,,,0.00,Wunderground v.1.15,2013-03-08 18:22:00,
2013-03-08 13:27:00,75.1,49.1,30.15,NNE,22,3.0,4.0,40,0.00,,,0.00,Wunderground v.1.15,2013-03-08 18:27:00,
2013-03-08 13:32:00,75.4,50.7,30.15,North,8,0.0,3.0,42,0.00,,,0.00,Wunderground v.1.15,2013-03-08 18:32:00,
2013-03-08 13:37:00,75.9,51.2,30.15,WNW,300,0.0,3.0,42,0.00,,,0.00,Wunderground v.1.15,2013-03-08 18:37:00,
2013-03-08 13:42:00,75.9,48.5,30.15,North,352,3.0,7.0,38,0.00,,,0.00,Wunderground v.1.15,2013-03-08 18:42:00,
2013-03-08 13:47:00,75.1,48.4,30.14,North,355,2.0,8.0,39,0.00,,,0.00,Wunderground v.1.15,2013-03-08 18:47:00,
2013-03-08 13:52:00,74.8,49.5,30.15,NW,321,2.0,7.0,41,0.00,,,0.00,Wunderground v.1.15,2013-03-08 18:52:00,
2013-03-08 13:57:00,74.4,47.1,30.14,West,267,0.0,7.0,38,0.00,,,0.00,Wunderground v.1.15,2013-03-08 18:57:00,
2013-03-08 14:02:00,74.6,49.3,30.14,NE,43,0.0,8.0,41,0.00,,,0.00,Wunderground v.1.15,2013-03-08 19:02:00,
2013-03-08 14:07:00,75.7,49.0,30.14,NNW,338,0.0,8.0,39,0.00,,,0.00,Wunderground v.1.15,2013-03-08 19:07:00,
2013-03-08 14:12:00,75.7,48.3,30.14,North,8,3.0,6.0,38,0.00,,,0.00,Wunderground v.1.15,2013-03-08 19:12:00,
2013-03-08 14:17:00,75.5,50.1,30.14,NNE,31,0.0,6.0,41,0.00,,,0.00,Wunderground v.1.15,2013-03-08 19:17:00,
2013-03-08 14:22:00,75.6,49.6,30.14,WSW,258,5.0,5.0,40,0.00,,,0.00,Wunderground v.1.15,2013-03-08 19:22:00,
2013-03-08 14:27:00,75.1,48.4,30.14,NW,326,0.0,7.0,39,0.00,,,0.00,Wunderground v.1.15,2013-03-08 19:27:00,
2013-03-08 14:32:00,75.9,49.8,30.14,NE,44,0.0,5.0,40,0.00,,,0.00,Wunderground v.1.15,2013-03-08 19:32:00,
2013-03-08 14:37:00,76.5,49.0,30.13,NNE,12,5.0,5.0,38,0.00,,,0.00,Wunderground v.1.15,2013-03-08 19:37:00,
2013-03-08 14:42:00,76.9,49.4,30.13,NW,315,0.0,3.0,38,0.00,,,0.00,Wunderground v.1.15,2013-03-08 19:42:00,
2013-03-08 14:47:00,77.3,49.0,30.13,NE,49,0.0,5.0,37,0.00,,,0.00,Wunderground v.1.15,2013-03-08 19:47:00,
2013-03-08 14:53:00,77.3,49.0,30.13,ENE,59,0.0,1.0,37,0.00,,,0.00,Wunderground v.1.15,2013-03-08 19:53:00,
2013-03-08 14:58:00,77.5,49.2,30.13,NW,317,0.0,1.0,37,0.00,,,0.00,Wunderground v.1.15,2013-03-08 19:58:00,
2013-03-08 15:03:00,77.2,48.9,30.12,NNE,26,0.0,4.0,37,0.00,,,0.00,Wunderground v.1.15,2013-03-08 20:03:00,
2013-03-08 15:08:00,77.0,48.7,30.12,NW,307,3.0,5.0,37,0.00,,,0.00,Wunderground v.1.15,2013-03-08 20:08:00,
2013-03-08 15:13:00,77.0,48.7,30.12,North,360,1.0,5.0,37,0.00,,,0.00,Wunderground v.1.15,2013-03-08 20:13:00,
2013-03-08 15:18:00,76.9,49.4,30.12,North,356,0.0,5.0,38,0.00,,,0.00,Wunderground v.1.15,2013-03-08 20:18:00,
2013-03-08 15:23:00,76.8,47.8,30.12,NNW,343,0.0,3.0,36,0.00,,,0.00,Wunderground v.1.15,2013-03-08 20:23:00,
2013-03-08 15:28:00,77.0,49.4,30.12,NNW,338,0.0,4.0,38,0.00,,,0.00,Wunderground v.1.15,2013-03-08 20:28:00,
2013-03-08 15:33:00,77.3,48.3,30.12,WNW,291,1.0,2.0,36,0.00,,,0.00,Wunderground v.1.15,2013-03-08 20:33:00,
2013-03-08 15:38:00,77.4,49.1,30.12,NE,39,1.0,5.0,37,0.00,,,0.00,Wunderground v.1.15,2013-03-08 20:38:00,
2013-03-08 15:43:00,77.5,49.2,30.12,WNW,284,0.0,3.0,37,0.00,,,0.00,Wunderground v.1.15,2013-03-08 20:43:00,
2013-03-08 15:48:00,77.7,47.9,30.11,WNW,288,3.0,4.0,35,0.00,,,0.00,Wunderground v.1.15,2013-03-08 20:48:00,
2013-03-08 15:53:00,77.0,48.0,30.12,NNE,33,2.0,4.0,36,0.00,,,0.00,Wunderground v.1.15,2013-03-08 20:53:00,
2013-03-08 15:58:00,77.5,48.4,30.12,ENE,65,2.0,6.0,36,0.00,,,0.00,Wunderground v.1.15,2013-03-08 20:58:00,
2013-03-08 16:03:00,77.5,49.2,30.12,NNE,32,0.0,3.0,37,0.00,,,0.00,Wunderground v.1.15,2013-03-08 21:03:00,
2013-03-08 16:08:00,77.5,49.2,30.12,NE,46,1.0,3.0,37,0.00,,,0.00,Wunderground v.1.15,2013-03-08 21:08:00,
2013-03-08 16:13:00,77.5,49.2,30.12,NE,44,0.0,3.0,37,0.00,,,0.00,Wunderground v.1.15,2013-03-08 21:13:00,
2013-03-08 16:18:00,77.8,49.4,30.12,NE,51,0.0,3.0,37,0.00,,,0.00,Wunderground v.1.15,2013-03-08 21:18:00,
2013-03-08 16:23:00,77.9,48.8,30.12,NNE,23,0.0,2.0,36,0.00,,,0.00,Wunderground v.1.15,2013-03-08 21:23:00,
2013-03-08 16:28:00,77.7,47.9,30.12,WNW,293,0.0,5.0,35,0.00,,,0.00,Wunderground v.1.15,2013-03-08 21:28:00,
2013-03-08 16:33:00,78.2,49.1,30.12,North,3,2.0,4.0,36,0.00,,,0.00,Wunderground v.1.15,2013-03-08 21:33:00,
2013-03-08 16:38:00,78.2,48.3,30.12,ENE,58,0.0,4.0,35,0.00,,,0.00,Wunderground v.1.15,2013-03-08 21:38:00,
2013-03-08 16:44:00,77.8,47.2,30.12,ENE,62,1.0,3.0,34,0.00,,,0.00,Wunderground v.1.15,2013-03-08 21:44:00,
2013-03-08 16:49:00,77.6,47.8,30.12,NNE,22,0.0,5.0,35,0.00,,,0.00,Wunderground v.1.15,2013-03-08 21:49:00,
2013-03-08 16:54:00,77.9,48.0,30.12,ENE,58,0.0,1.0,35,0.00,,,0.00,Wunderground v.1.15,2013-03-08 21:54:00,
2013-03-08 16:59:00,78.1,47.4,30.13,West,276,0.0,1.0,34,0.00,,,0.00,Wunderground v.1.15,2013-03-08 21:59:00,
2013-03-08 17:04:00,77.7,47.1,30.13,NE,44,0.0,3.0,34,0.00,,,0.00,Wunderground v.1.15,2013-03-08 22:04:00,
2013-03-08 17:09:00,77.7,47.1,30.13,NE,56,0.0,3.0,34,0.00,,,0.00,Wunderground v.1.15,2013-03-08 22:09:00,
2013-03-08 17:14:00,77.0,52.8,30.13,ENE,77,1.0,4.0,43,0.00,,,0.00,Wunderground v.1.15,2013-03-08 22:14:00,
2013-03-08 17:19:00,75.9,53.0,30.13,ESE,103,0.0,6.0,45,0.00,,,0.00,Wunderground v.1.15,2013-03-08 22:19:00,
2013-03-08 17:24:00,75.4,53.2,30.13,East,91,0.0,6.0,46,0.00,,,0.00,Wunderground v.1.15,2013-03-08 22:24:00,
2013-03-08 17:29:00,75.0,53.4,30.13,East,98,6.0,6.0,47,0.00,,,0.00,Wunderground v.1.15,2013-03-08 22:29:00,
2013-03-08 17:34:00,74.3,53.3,30.13,ENE,76,2.0,7.0,48,0.00,,,0.00,Wunderground v.1.15,2013-03-08 22:34:00,
2013-03-08 17:39:00,74.0,53.6,30.14,East,98,0.0,7.0,49,0.00,,,0.00,Wunderground v.1.15,2013-03-08 22:39:00,
2013-03-08 17:44:00,73.8,53.4,30.13,East,84,2.0,5.0,49,0.00,,,0.00,Wunderground v.1.15,2013-03-08 22:44:00,
2013-03-08 17:49:00,73.3,53.5,30.14,East,89,4.0,5.0,50,0.00,,,0.00,Wunderground v.1.15,2013-03-08 22:49:00,
2013-03-08 17:54:00,72.7,53.5,30.14,ENE,65,2.0,6.0,51,0.00,,,0.00,Wunderground v.1.15,2013-03-08 22:54:00,
2013-03-08 17:59:00,72.4,53.8,30.14,ESE,118,2.0,6.0,52,0.00,,,0.00,Wunderground v.1.15,2013-03-08 22:59:00,
2013-03-08 18:04:00,72.2,53.6,30.14,North,3,1.0,4.0,52,0.00,,,0.00,Wunderground v.1.15,2013-03-08 23:04:00,
2013-03-08 18:09:00,71.8,53.7,30.15,East,87,1.0,4.0,53,0.00,,,0.00,Wunderground v.1.15,2013-03-08 23:09:00,
2013-03-08 18:14:00,71.2,54.2,30.15,East,80,0.0,4.0,55,0.00,,,0.00,Wunderground v.1.15,2013-03-08 23:14:00,
2013-03-08 18:19:00,70.6,54.1,30.15,East,80,0.0,4.0,56,0.00,,,0.00,Wunderground v.1.15,2013-03-08 23:19:00,
2013-03-08 18:24:00,70.1,54.2,30.15,NE,56,0.0,3.0,57,0.00,,,0.00,Wunderground v.1.15,2013-03-08 23:24:00,
2013-03-08 18:29:00,69.7,54.3,30.15,East,91,0.0,3.0,58,0.00,,,0.00,Wunderground v.1.15,2013-03-08 23:29:00,
2013-03-08 18:34:00,69.3,54.4,30.15,East,93,0.0,1.0,59,0.00,,,0.00,Wunderground v.1.15,2013-03-08 23:34:00,
2013-03-08 18:39:00,68.9,54.4,30.15,East,82,0.0,2.0,60,0.00,,,0.00,Wunderground v.1.15,2013-03-08 23:39:00,
2013-03-08 18:44:00,68.6,54.6,30.15,East,91,0.0,2.0,61,0.00,,,0.00,Wunderground v.1.15,2013-03-08 23:44:00,
2013-03-08 18:49:00,68.4,54.4,30.15,East,84,0.0,2.0,61,0.00,,,0.00,Wunderground v.1.15,2013-03-08 23:49:00,
2013-03-08 18:55:00,68.1,54.6,30.16,East,80,0.0,1.0,62,0.00,,,0.00,Wunderground v.1.15,2013-03-08 23:55:00,
2013-03-08 19:00:00,67.8,54.3,30.16,NE,56,0.0,1.0,62,0.00,,,0.00,Wunderground v.1.15,2013-03-09 00:00:00,
2013-03-08 19:05:00,67.6,54.6,30.16,East,82,0.0,1.0,63,0.00,,,0.00,Wunderground v.1.15,2013-03-09 00:05:00,
2013-03-08 19:10:00,67.2,54.6,30.16,East,82,0.0,0.0,64,0.00,,,0.00,Wunderground v.1.15,2013-03-09 00:10:00,
2013-03-08 19:15:00,66.9,54.3,30.16,East,82,0.0,0.0,64,0.00,,,0.00,Wunderground v.1.15,2013-03-09 00:15:00,
2013-03-08 19:20:00,66.7,54.6,30.16,East,82,0.0,0.0,65,0.00,,,0.00,Wunderground v.1.15,2013-03-09 00:20:00,
2013-03-08 19:25:00,66.3,54.6,30.16,East,82,0.0,0.0,66,0.00,,,0.00,Wunderground v.1.15,2013-03-09 00:25:00,
2013-03-08 19:30:00,66.0,54.7,30.16,East,82,0.0,0.0,67,0.00,,,0.00,Wunderground v.1.15,2013-03-09 00:30:00,
2013-03-08 19:35:00,65.6,54.8,30.17,East,82,0.0,0.0,68,0.00,,,0.00,Wunderground v.1.15,2013-03-09 00:35:00,
2013-03-08 19:40:00,65.2,54.4,30.17,East,82,0.0,0.0,68,0.00,,,0.00,Wunderground v.1.15,2013-03-09 00:40:00,
2013-03-08 19:45:00,65.1,54.7,30.17,East,82,0.0,1.0,69,0.00,,,0.00,Wunderground v.1.15,2013-03-09 00:45:00,
2013-03-08 19:50:00,65.0,54.6,30.17,East,82,0.0,0.0,69,0.00,,,0.00,Wunderground v.1.15,2013-03-09 00:50:00,
2013-03-08 19:55:00,64.9,54.9,30.17,East,82,0.0,0.0,70,0.00,,,0.00,Wunderground v.1.15,2013-03-09 00:55:00,
2013-03-08 20:00:00,64.9,54.9,30.17,East,82,0.0,0.0,70,0.00,,,0.00,Wunderground v.1.15,2013-03-09 01:00:00,
2013-03-08 20:05:00,64.7,54.7,30.17,East,82,0.0,0.0,70,0.00,,,0.00,Wunderground v.1.15,2013-03-09 01:05:00,
2013-03-08 20:10:00,64.6,55.0,30.17,East,82,0.0,0.0,71,0.00,,,0.00,Wunderground v.1.15,2013-03-09 01:10:00,
2013-03-08 20:15:00,64.4,54.8,30.17,East,82,0.0,0.0,71,0.00,,,0.00,Wunderground v.1.15,2013-03-09 01:15:00,
2013-03-08 20:20:00,64.1,54.5,30.17,East,82,0.0,0.0,71,0.00,,,0.00,Wunderground v.1.15,2013-03-09 01:20:00,
2013-03-08 20:25:00,63.7,54.1,30.17,East,83,0.0,0.0,71,0.00,,,0.00,Wunderground v.1.15,2013-03-09 01:25:00,
2013-03-08 20:30:00,63.3,54.5,30.17,East,83,0.0,0.0,73,0.00,,,0.00,Wunderground v.1.15,2013-03-09 01:30:00,
2013-03-08 20:35:00,63.2,54.8,30.17,East,83,0.0,0.0,74,0.00,,,0.00,Wunderground v.1.15,2013-03-09 01:35:00,
2013-03-08 20:40:00,63.0,54.9,30.17,East,82,0.0,0.0,75,0.00,,,0.00,Wunderground v.1.15,2013-03-09 01:40:00,
2013-03-08 20:45:00,62.9,54.9,30.18,East,82,0.0,0.0,75,0.00,,,0.00,Wunderground v.1.15,2013-03-09 01:45:00,
2013-03-08 20:50:00,62.6,54.9,30.18,East,82,0.0,0.0,76,0.00,,,0.00,Wunderground v.1.15,2013-03-09 01:50:00,
2013-03-08 20:55:00,62.2,54.5,30.18,East,82,0.0,0.0,76,0.00,,,0.00,Wunderground v.1.15,2013-03-09 01:55:00,
2013-03-08 21:00:00,62.1,54.8,30.18,East,79,0.0,0.0,77,0.00,,,0.00,Wunderground v.1.15,2013-03-09 02:00:00,
2013-03-08 21:05:00,62.1,54.8,30.18,East,79,0.0,0.0,77,0.00,,,0.00,Wunderground v.1.15,2013-03-09 02:05:00,
2013-03-08 21:10:00,62.0,54.7,30.18,East,79,0.0,0.0,77,0.00,,,0.00,Wunderground v.1.15,2013-03-09 02:10:00,
2013-03-08 21:15:00,62.1,54.4,30.19,East,79,0.0,0.0,76,0.00,,,0.00,Wunderground v.1.15,2013-03-09 02:15:00,
2013-03-08 21:21:00,61.8,54.2,30.19,East,79,0.0,0.0,76,0.00,,,0.00,Wunderground v.1.15,2013-03-09 02:21:00,
2013-03-08 21:26:00,61.6,54.3,30.19,East,79,0.0,0.0,77,0.00,,,0.00,Wunderground v.1.15,2013-03-09 02:26:00,
2013-03-08 21:31:00,61.5,54.2,30.19,East,79,0.0,0.0,77,0.00,,,0.00,Wunderground v.1.15,2013-03-09 02:31:00,
2013-03-08 21:36:00,61.5,54.6,30.19,East,79,0.0,0.0,78,0.00,,,0.00,Wunderground v.1.15,2013-03-09 02:36:00,
2013-03-08 21:41:00,61.4,54.5,30.19,East,79,0.0,0.0,78,0.00,,,0.00,Wunderground v.1.15,2013-03-09 02:41:00,
2013-03-08 21:46:00,61.4,54.5,30.19,East,79,0.0,0.0,78,0.00,,,0.00,Wunderground v.1.15,2013-03-09 02:46:00,
2013-03-08 21:51:00,61.4,54.5,30.19,East,79,0.0,0.0,78,0.00,,,0.00,Wunderground v.1.15,2013-03-09 02:51:00,
2013-03-08 21:56:00,61.2,54.3,30.19,East,79,0.0,0.0,78,0.00,,,0.00,Wunderground v.1.15,2013-03-09 02:56:00,
2013-03-08 22:01:00,61.1,54.5,30.18,East,79,0.0,1.0,79,0.00,,,0.00,Wunderground v.1.15,2013-03-09 03:01:00,
2013-03-08 22:06:00,61.0,54.4,30.18,ENE,77,0.0,1.0,79,0.00,,,0.00,Wunderground v.1.15,2013-03-09 03:06:00,
2013-03-08 22:11:00,60.8,54.2,30.18,ENE,78,0.0,0.0,79,0.00,,,0.00,Wunderground v.1.15,2013-03-09 03:11:00,
2013-03-08 22:16:00,60.6,54.4,30.18,ENE,77,0.0,0.0,80,0.00,,,0.00,Wunderground v.1.15,2013-03-09 03:16:00,
2013-03-08 22:21:00,60.5,54.6,30.18,ENE,78,0.0,0.0,81,0.00,,,0.00,Wunderground v.1.15,2013-03-09 03:21:00,
2013-03-08 22:26:00,60.4,54.5,30.18,ENE,78,0.0,1.0,81,0.00,,,0.00,Wunderground v.1.15,2013-03-09 03:26:00,
2013-03-08 22:31:00,60.4,54.5,30.18,ENE,62,0.0,0.0,81,0.00,,,0.00,Wunderground v.1.15,2013-03-09 03:31:00,
2013-03-08 22:36:00,60.5,54.6,30.18,ENE,58,0.0,1.0,81,0.00,,,0.00,Wunderground v.1.15,2013-03-09 03:36:00,
2013-03-08 22:41:00,60.6,54.4,30.18,ENE,58,0.0,0.0,80,0.00,,,0.00,Wunderground v.1.15,2013-03-09 03:41:00,
2013-03-08 22:46:00,60.7,54.1,30.18,NE,54,0.0,1.0,79,0.00,,,0.00,Wunderground v.1.15,2013-03-09 03:46:00,
2013-03-08 22:51:00,61.0,54.1,30.18,NNE,19,0.0,1.0,78,0.00,,,0.00,Wunderground v.1.15,2013-03-09 03:51:00,
2013-03-08 22:56:00,61.2,54.3,30.18,NE,39,2.0,2.0,78,0.00,,,0.00,Wunderground v.1.15,2013-03-09 03:56:00,
2013-03-08 23:01:00,61.3,54.0,30.18,NE,35,0.0,0.0,77,0.00,,,0.00,Wunderground v.1.15,2013-03-09 04:01:00,
2013-03-08 23:06:00,61.3,54.0,30.18,NE,42,0.0,2.0,77,0.00,,,0.00,Wunderground v.1.15,2013-03-09 04:06:00,
2013-03-08 23:11:00,61.4,53.8,30.18,ENE,59,0.0,2.0,76,0.00,,,0.00,Wunderground v.1.15,2013-03-09 04:11:00,
2013-03-08 23:16:00,61.4,53.4,30.18,NE,56,0.0,2.0,75,0.00,,,0.00,Wunderground v.1.15,2013-03-09 04:16:00,
2013-03-08 23:21:00,61.5,53.5,30.17,ENE,70,0.0,1.0,75,0.00,,,0.00,Wunderground v.1.15,2013-03-09 04:21:00,
2013-03-08 23:26:00,61.5,53.1,30.17,NE,42,1.0,2.0,74,0.00,,,0.00,Wunderground v.1.15,2013-03-09 04:26:00,
2013-03-08 23:31:00,61.5,53.1,30.17,NE,34,0.0,3.0,74,0.00,,,0.00,Wunderground v.1.15,2013-03-09 04:31:00,
2013-03-08 23:36:00,61.5,53.1,30.17,ENE,73,0.0,3.0,74,0.00,,,0.00,Wunderground v.1.15,2013-03-09 04:36:00,
2013-03-08 23:41:00,61.3,52.9,30.17,East,97,1.0,1.0,74,0.00,,,0.00,Wunderground v.1.15,2013-03-09 04:41:00,
2013-03-08 23:46:00,61.2,52.8,30.17,East,95,0.0,1.0,74,0.00,,,0.00,Wunderground v.1.15,2013-03-09 04:46:00,
2013-03-08 23:51:00,61.1,52.4,30.17,NE,45,0.0,0.0,73,0.00,,,0.00,Wunderground v.1.15,2013-03-09 04:51:00,
2013-03-08 23:56:00,60.8,52.5,30.17,NE,46,0.0,0.0,74,0.00,,,0.00,Wunderground v.1.15,2013-03-09 04:56:00,